Time;durP1;ratioP1;P1;durP2;ratioP2;P2;SDS_P1;SDS_P2;PMS_P1;PMS_P2;Temp;Humidity;BMP_temperature;BMP_pressure;BME280_temperature;BME280_humidity;BME280_pressure;Samples;Min_cycle;Max_cycle;Signal;HPM_P1;HPM_P2
2021/12/08 00:01:46;;;;;;;25.45;15.88;;;77.00;2227.20;;;;;;5096753;28;20017;-91
2021/12/08 00:04:13;;;;;;;23.00;14.90;;;77.00;2227.20;;;;;;5096396;28;20012;-93
2021/12/08 00:06:39;;;;;;;24.75;15.13;;;77.00;2227.20;;;;;;5096558;28;20107;-89
2021/12/08 00:09:18;;;;;;;24.77;14.57;;;77.10;2227.20;;;;;;5096717;28;20077;-89
2021/12/08 00:14:29;;;;;;;23.42;15.07;;;77.10;2227.20;;;;;;5097605;28;20039;-90
2021/12/08 00:16:55;;;;;;;26.10;15.05;;;77.10;2227.20;;;;;;5096736;28;20028;-90
2021/12/08 00:19:21;;;;;;;29.58;18.08;;;77.10;2227.20;;;;;;5096216;28;20031;-90
2021/12/08 00:21:47;;;;;;;50.85;29.52;;;77.10;2227.20;;;;;;5096275;28;20110;-90
2021/12/08 00:24:13;;;;;;;34.92;19.85;;;77.10;2227.20;;;;;;5096294;28;20055;-89
2021/12/08 00:26:39;;;;;;;44.92;24.08;;;77.10;2227.20;;;;;;5096084;28;20031;-90
2021/12/08 00:29:05;;;;;;;80.93;36.17;;;77.20;2227.20;;;;;;5096302;28;20027;-91
2021/12/08 00:31:31;;;;;;;56.50;27.75;;;77.10;2227.20;;;;;;5096151;28;20024;-90
2021/12/08 00:33:57;;;;;;;29.42;16.58;;;77.10;2227.20;;;;;;5096265;28;20051;-89
2021/12/08 00:36:30;;;;;;;37.70;19.60;;;77.10;2227.20;;;;;;5096303;28;20017;-90
2021/12/08 00:38:56;;;;;;;50.83;27.10;;;77.10;2227.20;;;;;;5096483;28;20063;-90
2021/12/08 00:41:22;;;;;;;35.40;21.30;;;77.10;2227.20;;;;;;5096491;28;20475;-90
2021/12/08 00:43:48;;;;;;;37.42;22.15;;;77.10;2227.20;;;;;;5096479;28;20035;-90
2021/12/08 00:46:14;;;;;;;36.25;19.83;;;77.10;2227.20;;;;;;5096388;28;20489;-91
2021/12/08 00:48:46;;;;;;;28.83;16.58;;;77.20;2227.20;;;;;;5096167;28;20436;-89
2021/12/08 00:51:12;;;;;;;27.33;16.05;;;77.20;2227.20;;;;;;5095542;28;20027;-91
2021/12/08 00:53:38;;;;;;;26.80;15.82;;;77.20;2227.20;;;;;;5096054;28;20020;-91
2021/12/08 00:56:04;;;;;;;27.42;17.77;;;77.20;2227.20;;;;;;5095663;28;20444;-91
2021/12/08 00:58:29;;;;;;;33.10;21.55;;;77.10;2227.20;;;;;;5095844;28;20115;-90
2021/12/08 01:00:55;;;;;;;24.80;16.15;;;77.20;2227.20;;;;;;5095671;28;20426;-90
2021/12/08 01:03:21;;;;;;;25.85;16.20;;;77.20;2227.20;;;;;;5095723;28;20027;-89
2021/12/08 01:05:54;;;;;;;25.95;16.27;;;77.20;2227.20;;;;;;5095330;28;20050;-89
2021/12/08 01:08:22;;;;;;;29.05;17.63;;;77.20;2227.20;;;;;;5096707;28;20016;-88
2021/12/08 01:10:56;;;;;;;27.00;16.27;;;77.20;2227.20;;;;;;5098262;28;20065;-89
2021/12/08 01:13:24;;;;;;;31.17;18.75;;;77.20;2227.20;;;;;;5102651;28;20455;-92
2021/12/08 01:15:53;;;;;;;23.15;12.57;;;77.30;2227.20;;;;;;5105208;28;20016;-90
2021/12/08 01:18:21;;;;;;;26.52;16.80;;;77.20;2227.20;;;;;;5104718;28;20028;-88
2021/12/08 01:20:47;;;;;;;28.10;16.70;;;77.30;2227.20;;;;;;5102404;28;20012;-89
2021/12/08 01:23:15;;;;;;;23.00;14.63;;;77.20;2227.20;;;;;;5101407;28;20020;-90
2021/12/08 01:25:41;;;;;;;30.70;17.83;;;77.20;2227.20;;;;;;5102192;28;20020;-89
2021/12/08 01:28:07;;;;;;;24.20;15.65;;;77.20;2227.20;;;;;;5100690;28;20091;-89
2021/12/08 01:30:34;;;;;;;31.42;20.05;;;77.20;2227.20;;;;;;5101063;28;20469;-89
2021/12/08 01:33:00;;;;;;;26.02;17.80;;;77.20;2227.20;;;;;;5097718;28;20443;-90
2021/12/08 01:35:26;;;;;;;23.77;14.77;;;77.20;2227.20;;;;;;5096229;28;20016;-89
2021/12/08 01:37:52;;;;;;;32.63;17.60;;;77.10;2227.20;;;;;;5097240;28;20040;-89
2021/12/08 01:40:18;;;;;;;29.88;17.90;;;77.20;2227.20;;;;;;5095284;28;20111;-89
2021/12/08 01:42:49;;;;;;;29.25;18.27;;;77.20;2227.20;;;;;;5096158;28;20052;-89
2021/12/08 01:48:06;;;;;;;30.00;18.17;;;77.20;2227.20;;;;;;5096858;28;20027;-92
2021/12/08 01:50:33;;;;;;;27.60;18.30;;;77.20;2227.20;;;;;;5095321;28;20020;-92
2021/12/08 01:52:59;;;;;;;25.30;15.73;;;77.30;2227.20;;;;;;5095418;28;20051;-92
2021/12/08 01:55:25;;;;;;;20.80;14.18;;;77.20;2227.20;;;;;;5094595;28;20470;-91
2021/12/08 01:57:52;;;;;;;27.10;15.48;;;77.20;2227.20;;;;;;5094500;28;20448;-91
2021/12/08 02:00:29;;;;;;;23.70;15.20;;;77.20;2227.20;;;;;;5094656;28;20024;-89
2021/12/08 02:02:55;;;;;;;23.88;16.23;;;77.30;2227.20;;;;;;5094523;28;20027;-90
2021/12/08 02:05:21;;;;;;;20.80;14.50;;;77.20;2227.20;;;;;;5094556;28;20016;-92
2021/12/08 02:07:47;;;;;;;24.75;15.65;;;77.20;2227.20;;;;;;5094505;28;20023;-91
2021/12/08 02:10:13;;;;;;;23.88;15.15;;;77.20;2227.20;;;;;;5094437;28;20049;-91
2021/12/08 02:12:41;;;;;;;21.27;13.95;;;77.20;2227.20;;;;;;5094768;28;20024;-92
2021/12/08 02:15:10;;;;;;;24.05;14.18;;;77.20;2227.20;;;;;;5098734;28;20024;-90
2021/12/08 02:17:37;;;;;;;21.80;15.25;;;77.10;2227.20;;;;;;5104234;28;20027;-91
2021/12/08 02:20:07;;;;;;;26.85;17.05;;;77.20;2227.20;;;;;;5094155;28;20115;-91
2021/12/08 02:22:33;;;;;;;26.52;17.33;;;77.20;2227.20;;;;;;5093679;28;20020;-90
2021/12/08 02:24:59;;;;;;;23.38;14.98;;;77.20;2227.20;;;;;;5094288;28;20456;-91
2021/12/08 02:27:31;;;;;;;24.85;15.82;;;77.20;2227.20;;;;;;5094335;28;20016;-90
2021/12/08 02:30:05;;;;;;;26.90;14.70;;;77.20;2227.20;;;;;;5093723;28;20077;-92
2021/12/08 02:49:01;;;;;;;22.42;15.18;;;77.20;2227.20;;;;;;5095250;28;20111;-92
2021/12/08 02:51:28;;;;;;;25.60;15.35;;;77.30;2227.20;;;;;;5093703;28;20024;-90
2021/12/08 02:53:54;;;;;;;22.30;14.50;;;77.30;2227.20;;;;;;5093803;28;20030;-91
2021/12/08 02:56:20;;;;;;;22.77;14.98;;;77.30;2227.20;;;;;;5093736;28;20107;-90
2021/12/08 02:58:47;;;;;;;22.35;14.32;;;77.30;2227.20;;;;;;5093717;28;20024;-91
2021/12/08 03:01:13;;;;;;;25.90;14.15;;;77.30;2227.20;;;;;;5093857;28;20031;-91
2021/12/08 03:03:40;;;;;;;20.40;13.90;;;77.70;2227.20;;;;;;5093744;28;20020;-91
2021/12/08 03:06:05;;;;;;;22.75;15.30;;;77.30;2227.20;;;;;;5093607;28;20020;-91
2021/12/08 03:08:32;;;;;;;21.35;13.95;;;77.30;2227.20;;;;;;5093909;28;20108;-91
2021/12/08 03:10:58;;;;;;;21.85;13.80;;;77.30;2227.20;;;;;;5093649;28;20023;-90
2021/12/08 03:13:33;;;;;;;21.73;14.63;;;77.60;2227.20;;;;;;5093765;28;20142;-90
2021/12/08 03:15:59;;;;;;;20.02;13.77;;;77.30;2227.20;;;;;;5093350;28;20473;-91
2021/12/08 03:18:32;;;;;;;20.77;13.45;;;77.30;2227.20;;;;;;5093493;28;20101;-92
2021/12/08 03:20:58;;;;;;;22.15;13.82;;;77.40;2227.20;;;;;;5093657;28;20367;-91
2021/12/08 03:23:31;;;;;;;19.40;12.93;;;77.40;2227.20;;;;;;5093228;28;20020;-91
2021/12/08 03:26:00;;;;;;;20.95;13.75;;;77.40;2227.20;;;;;;5093726;28;20028;-92
2021/12/08 03:28:30;;;;;;;18.42;11.82;;;77.40;2227.20;;;;;;5093641;28;20031;-92
2021/12/08 03:33:23;;;;;;;23.20;15.25;;;77.40;2227.20;;;;;;5094640;28;20404;-90
2021/12/08 03:35:49;;;;;;;20.98;13.75;;;77.40;2227.20;;;;;;5093332;28;20052;-90
2021/12/08 03:38:20;;;;;;;19.23;12.88;;;77.40;2227.20;;;;;;5092829;28;20064;-91
2021/12/08 03:40:48;;;;;;;21.15;13.43;;;77.50;2227.20;;;;;;5093536;28;20086;-91
2021/12/08 03:43:14;;;;;;;20.00;12.57;;;77.40;2227.20;;;;;;5093482;28;20055;-91
2021/12/08 03:45:45;;;;;;;19.75;13.07;;;77.40;2227.20;;;;;;5093581;28;20089;-91
2021/12/08 03:48:24;;;;;;;21.48;14.45;;;77.40;2227.20;;;;;;5093679;28;20178;-91
2021/12/08 03:50:51;;;;;;;17.45;11.77;;;77.40;2227.20;;;;;;5093563;28;20024;-93
2021/12/08 03:53:17;;;;;;;21.60;12.90;;;77.40;2227.20;;;;;;5093827;28;20031;-92
2021/12/08 03:55:45;;;;;;;19.70;12.27;;;77.40;2227.20;;;;;;5093389;28;20032;-91
2021/12/08 03:58:12;;;;;;;21.35;14.02;;;77.40;2227.20;;;;;;5093330;28;20016;-91
2021/12/08 04:00:39;;;;;;;21.27;13.32;;;77.40;2227.20;;;;;;5093195;28;20020;-92
2021/12/08 04:03:06;;;;;;;20.85;12.88;;;77.40;2227.20;;;;;;5095512;28;20027;-91
2021/12/08 04:08:26;;;;;;;18.83;12.85;;;77.40;2227.20;;;;;;5097823;28;20608;-93
2021/12/08 04:10:52;;;;;;;22.40;13.77;;;77.30;2227.20;;;;;;5096650;28;20027;-91
2021/12/08 04:13:23;;;;;;;18.48;12.95;;;77.40;2227.20;;;;;;5096595;28;20110;-91
2021/12/08 04:15:49;;;;;;;19.42;13.10;;;77.30;2227.20;;;;;;5096506;28;20020;-86
2021/12/08 04:18:16;;;;;;;21.15;13.18;;;77.30;2227.20;;;;;;5096117;28;20028;-91
2021/12/08 04:20:51;;;;;;;21.02;12.63;;;77.40;2227.20;;;;;;5096391;28;20069;-91
2021/12/08 04:23:19;;;;;;;22.15;13.63;;;77.40;2227.20;;;;;;5096672;28;20027;-90
2021/12/08 04:25:51;;;;;;;17.42;11.85;;;77.30;2227.20;;;;;;5096169;28;20020;-91
2021/12/08 04:28:22;;;;;;;20.27;12.93;;;77.40;2227.20;;;;;;5096577;28;20031;-91
2021/12/08 04:31:05;;;;;;;19.42;11.88;;;77.40;2227.20;;;;;;5096344;28;20056;-91
2021/12/08 04:33:34;;;;;;;18.40;11.52;;;77.40;2227.20;;;;;;5096332;28;20116;-90
2021/12/08 04:36:01;;;;;;;16.25;11.55;;;77.40;2227.20;;;;;;5096475;28;20148;-91
2021/12/08 04:38:34;;;;;;;15.55;10.70;;;102.50;2227.20;;;;;;5095582;28;20044;-91
2021/12/08 04:41:06;;;;;;;19.25;11.90;;;77.40;2227.20;;;;;;5096181;28;20028;-90
2021/12/08 04:47:12;;;;;;;18.10;11.65;;;77.40;2227.20;;;;;;5097226;28;20024;-91
2021/12/08 04:52:23;;;;;;;20.38;12.73;;;77.30;2227.20;;;;;;5096949;28;20030;-92
2021/12/08 05:06:06;;;;;;;29.33;16.00;;;77.30;2227.20;;;;;;5096686;28;20012;-91
2021/12/08 05:08:41;;;;;;;27.38;16.70;;;77.30;2227.20;;;;;;5095568;28;20122;-92
2021/12/08 05:11:32;;;;;;;47.33;26.05;;;77.30;2227.20;;;;;;5095507;28;20024;-90
2021/12/08 05:14:24;;;;;;;29.95;18.00;;;77.40;2227.20;;;;;;5107727;28;20024;-90
2021/12/08 05:16:58;;;;;;;36.47;21.45;;;77.30;2227.20;;;;;;5104952;28;20467;-91
2021/12/08 05:19:28;;;;;;;39.40;21.45;;;77.30;2227.20;;;;;;5095187;28;20028;-90
2021/12/08 05:22:21;;;;;;;27.30;17.85;;;77.30;2227.20;;;;;;5095221;28;20020;-91
2021/12/08 05:24:51;;;;;;;27.77;18.38;;;77.30;2227.20;;;;;;5084626;28;20490;-90
2021/12/08 05:27:22;;;;;;;32.45;19.40;;;77.30;2227.20;;;;;;5095302;28;20031;-90
2021/12/08 05:29:53;;;;;;;25.75;16.52;;;77.30;2227.20;;;;;;5095036;28;20020;-91
2021/12/08 05:32:19;;;;;;;26.48;16.88;;;77.30;2227.20;;;;;;5096021;28;20032;-90
2021/12/08 05:34:45;;;;;;;22.33;13.52;;;77.20;2227.20;;;;;;5095134;28;20051;-90
2021/12/08 05:37:14;;;;;;;23.55;15.88;;;77.30;2227.20;;;;;;5094732;28;20044;-91
2021/12/08 05:39:40;;;;;;;23.60;14.93;;;77.30;2227.20;;;;;;5094964;28;20043;-91
2021/12/08 05:42:11;;;;;;;24.08;16.02;;;77.30;2227.20;;;;;;5094922;28;20020;-91
2021/12/08 05:44:38;;;;;;;23.05;15.30;;;77.30;2227.20;;;;;;5094755;28;20023;-91
2021/12/08 05:47:12;;;;;;;24.25;16.23;;;77.30;2227.20;;;;;;5095015;28;20028;-91
2021/12/08 05:49:39;;;;;;;19.85;13.52;;;77.30;2227.20;;;;;;5094802;28;20024;-92
2021/12/08 05:52:06;;;;;;;18.40;12.63;;;77.30;2227.20;;;;;;5094699;28;20020;-92
2021/12/08 05:54:35;;;;;;;24.10;15.45;;;76.90;2227.20;;;;;;5096199;28;20024;-90
2021/12/08 05:57:37;;;;;;;23.00;14.18;;;77.20;2227.20;;;;;;5094732;28;20020;-91
2021/12/08 06:00:13;;;;;;;26.33;15.50;;;77.30;2227.20;;;;;;5093995;28;20479;-91
2021/12/08 06:02:39;;;;;;;26.15;16.13;;;77.30;2227.20;;;;;;5095153;28;20016;-91
2021/12/08 06:05:07;;;;;;;26.67;17.73;;;77.30;2227.20;;;;;;5094523;28;20020;-91
2021/12/08 06:07:34;;;;;;;31.58;18.77;;;77.30;2227.20;;;;;;5094551;28;20051;-91
2021/12/08 06:10:04;;;;;;;27.45;15.90;;;77.30;2227.20;;;;;;5094306;28;20051;-91
2021/12/08 06:12:30;;;;;;;25.42;15.98;;;77.30;2227.20;;;;;;5094473;28;20016;-92
2021/12/08 06:14:56;;;;;;;26.85;16.33;;;77.40;2227.20;;;;;;5094346;28;20030;-90
2021/12/08 06:17:26;;;;;;;34.92;21.52;;;77.40;2227.20;;;;;;5094199;28;20054;-91
2021/12/08 06:19:53;;;;;;;39.22;21.05;;;77.40;2227.20;;;;;;5094205;28;20032;-91
2021/12/08 06:22:21;;;;;;;31.40;18.70;;;77.40;2227.20;;;;;;5094106;28;20012;-92
2021/12/08 06:24:48;;;;;;;33.15;17.67;;;77.40;2227.20;;;;;;5093643;28;20379;-92
2021/12/08 06:27:14;;;;;;;28.27;17.35;;;77.30;2227.20;;;;;;5094206;28;20063;-91
2021/12/08 06:29:43;;;;;;;30.65;18.95;;;77.40;2227.20;;;;;;5094020;28;20028;-91
2021/12/08 06:32:12;;;;;;;26.05;17.80;;;77.30;2227.20;;;;;;5093927;28;20024;-91
2021/12/08 06:34:40;;;;;;;28.95;18.08;;;77.30;2227.20;;;;;;5094307;28;20070;-91
2021/12/08 06:37:13;;;;;;;26.08;16.00;;;77.30;2227.20;;;;;;5093667;28;20051;-91
2021/12/08 06:39:54;;;;;;;31.27;19.00;;;77.30;2227.20;;;;;;5093829;28;20032;-90
2021/12/08 06:42:23;;;;;;;23.10;15.20;;;77.30;2227.20;;;;;;5094028;28;20020;-92
2021/12/08 06:44:52;;;;;;;25.63;16.30;;;77.30;2227.20;;;;;;5093958;28;20043;-89
2021/12/08 06:47:22;;;;;;;30.77;19.92;;;77.30;2227.20;;;;;;5093984;28;20513;-91
2021/12/08 06:49:50;;;;;;;30.27;20.42;;;77.30;2227.20;;;;;;5093837;28;20028;-91
2021/12/08 06:52:20;;;;;;;25.65;16.80;;;77.30;2227.20;;;;;;5094031;28;20027;-91
2021/12/08 06:55:26;;;;;;;27.33;16.92;;;77.30;2227.20;;;;;;5093804;28;20055;-91
2021/12/08 06:58:04;;;;;;;32.10;22.70;;;77.30;2227.20;;;;;;5093756;28;20115;-92
2021/12/08 07:03:42;;;;;;;35.53;21.60;;;77.30;2227.20;;;;;;5094951;28;20056;-91
2021/12/08 07:07:20;;;;;;;37.65;24.90;;;77.30;2227.20;;;;;;5093831;28;20478;-91
2021/12/08 07:09:23;;;;;;;68.05;45.78;;;77.30;2227.20;;;;;;5085424;28;20534;-91
2021/12/08 07:11:51;;;;;;;71.38;44.40;;;77.30;2227.20;;;;;;5093923;28;20612;-90
2021/12/08 07:14:20;;;;;;;185.98;93.30;;;77.20;2227.20;;;;;;5093671;28;20448;-90
2021/12/08 07:16:50;;;;;;;454.52;202.30;;;77.30;2227.20;;;;;;5093654;28;20024;-91
2021/12/08 07:19:38;;;;;;;308.25;150.68;;;77.30;2227.20;;;;;;5093587;28;20032;-91
2021/12/08 07:22:06;;;;;;;127.75;68.28;;;77.30;2227.20;;;;;;5093814;28;20410;-91
2021/12/08 07:24:36;;;;;;;58.65;37.55;;;77.30;2227.20;;;;;;5093560;28;20020;-92
2021/12/08 07:27:07;;;;;;;74.03;46.28;;;77.30;2227.20;;;;;;5093603;28;20024;-91
2021/12/08 07:29:36;;;;;;;118.13;63.15;;;77.30;2227.20;;;;;;5093650;28;20031;-92
2021/12/08 07:32:13;;;;;;;115.03;62.50;;;77.30;2227.20;;;;;;5093568;28;20452;-90
2021/12/08 07:34:40;;;;;;;137.07;77.30;;;77.30;2227.20;;;;;;5093454;28;20024;-91
2021/12/08 07:37:12;;;;;;;105.47;67.22;;;77.30;2227.20;;;;;;5094115;28;20055;-90
2021/12/08 07:39:44;;;;;;;78.47;50.33;;;77.40;2227.20;;;;;;5097701;28;20345;-90
2021/12/08 07:42:26;;;;;;;70.43;44.63;;;77.40;2227.20;;;;;;5097270;28;20020;-90
2021/12/08 07:44:56;;;;;;;117.10;66.93;;;77.50;2227.20;;;;;;5096925;28;20107;-91
2021/12/08 07:47:23;;;;;;;87.55;53.28;;;77.50;2227.20;;;;;;5097223;28;20016;-91
2021/12/08 07:50:18;;;;;;;87.38;48.53;;;77.60;2227.20;;;;;;5097328;28;20387;-90
2021/12/08 07:52:49;;;;;;;73.95;43.15;;;77.60;2227.20;;;;;;5089385;28;20054;-91
2021/12/08 07:55:21;;;;;;;63.85;38.55;;;77.60;2227.20;;;;;;5097115;28;20074;-90
2021/12/08 07:57:49;;;;;;;65.80;37.42;;;77.70;2227.20;;;;;;5097174;28;20024;-92
2021/12/08 08:00:21;;;;;;;51.00;33.70;;;102.40;2227.20;;;;;;5097309;28;20032;-93
2021/12/08 08:02:47;;;;;;;58.63;38.43;;;102.40;2227.20;;;;;;5097274;28;20087;-93
2021/12/08 08:05:15;;;;;;;59.53;39.58;;;77.70;2227.20;;;;;;5097024;28;20020;-90
2021/12/08 08:07:43;;;;;;;58.30;37.13;;;102.40;2227.20;;;;;;5096741;28;20070;-93
2021/12/08 08:10:14;;;;;;;52.03;35.33;;;102.50;2227.20;;;;;;5097219;28;20024;-91
2021/12/08 08:12:45;;;;;;;52.80;35.15;;;102.50;2227.20;;;;;;5102318;28;20031;-89
2021/12/08 08:15:23;;;;;;;57.80;38.08;;;102.60;2227.20;;;;;;5117292;28;20020;-92
2021/12/08 08:17:53;;;;;;;54.33;36.85;;;102.60;2227.20;;;;;;5096772;28;20378;-91
2021/12/08 08:20:32;;;;;;;52.38;38.03;;;102.70;2227.20;;;;;;5096390;28;20042;-92
2021/12/08 08:23:00;;;;;;;46.40;31.13;;;102.70;2227.20;;;;;;5096548;28;20047;-91
2021/12/08 08:25:33;;;;;;;49.03;32.35;;;102.70;2227.20;;;;;;5096340;28;20042;-93
2021/12/08 08:27:59;;;;;;;57.97;37.72;;;102.70;2227.20;;;;;;5096262;28;20027;-94
2021/12/08 08:30:32;;;;;;;55.45;38.08;;;102.70;2227.20;;;;;;5096234;28;20020;-91
2021/12/08 08:32:59;;;;;;;52.90;37.65;;;102.70;2227.20;;;;;;5096251;28;20023;-92
2021/12/08 08:35:38;;;;;;;66.38;41.20;;;102.70;2227.20;;;;;;5096365;28;20024;-89
2021/12/08 08:38:09;;;;;;;48.38;32.92;;;102.70;2227.20;;;;;;5096002;28;20085;-92
2021/12/08 08:40:40;;;;;;;58.92;39.08;;;102.70;2227.20;;;;;;5096207;28;20038;-93
2021/12/08 08:43:08;;;;;;;71.03;49.85;;;102.80;2227.20;;;;;;5095639;28;20028;-86
2021/12/08 08:45:43;;;;;;;63.30;43.08;;;102.90;2227.20;;;;;;5095728;28;20115;-90
2021/12/08 08:48:14;;;;;;;124.85;85.10;;;102.90;2227.20;;;;;;5095225;28;20020;-89
2021/12/08 08:50:54;;;;;;;67.60;48.40;;;103.00;2227.20;;;;;;5095292;28;20470;-83
2021/12/08 08:53:24;;;;;;;65.75;42.30;;;103.00;2227.20;;;;;;5095397;28;20032;-85
2021/12/08 08:56:03;;;;;;;103.95;62.75;;;103.00;2227.20;;;;;;5095293;28;20020;-84
2021/12/08 08:58:32;;;;;;;90.65;52.75;;;103.00;2227.20;;;;;;5095128;28;20031;-84
2021/12/08 09:01:07;;;;;;;81.00;50.35;;;103.10;2227.20;;;;;;5095141;28;20051;-85
2021/12/08 09:03:36;;;;;;;63.90;43.00;;;103.20;2227.20;;;;;;5096196;28;20016;-85
2021/12/08 09:06:08;;;;;;;51.72;34.67;;;103.30;2227.20;;;;;;5096335;28;20031;-84
2021/12/08 09:08:35;;;;;;;69.32;43.45;;;103.30;2227.20;;;;;;5095509;28;20031;-90
2021/12/08 09:11:06;;;;;;;59.60;36.38;;;103.30;2227.20;;;;;;5094552;28;20071;-91
2021/12/08 09:13:43;;;;;;;48.55;32.90;;;128.00;2252.80;;;;;;5094539;28;20024;-85
2021/12/08 09:16:26;;;;;;;57.78;39.08;;;128.20;2252.80;;;;;;5094553;28;20027;-87
2021/12/08 09:19:01;;;;;;;63.90;39.88;;;128.30;2252.80;;;;;;5095331;28;20097;-85
2021/12/08 09:21:32;;;;;;;50.58;34.55;;;128.50;2252.80;;;;;;5094589;28;20035;-81
2021/12/08 09:24:15;;;;;;;48.45;33.30;;;128.70;2252.80;;;;;;5094431;28;20418;-82
2021/12/08 09:26:46;;;;;;;50.42;34.55;;;128.80;2252.80;;;;;;5093917;28;20035;-84
2021/12/08 09:29:26;;;;;;;58.13;40.05;;;128.80;2252.80;;;;;;5095048;28;20032;-83
2021/12/08 09:32:06;;;;;;;48.03;32.80;;;128.90;2252.80;;;;;;5093761;28;20056;-80
2021/12/08 09:34:41;;;;;;;140.50;81.03;;;128.90;2252.80;;;;;;5094168;28;20020;-82
2021/12/08 09:37:11;;;;;;;85.05;53.55;;;153.60;2252.80;;;;;;5093513;28;20058;-80
2021/12/08 09:39:45;;;;;;;63.17;42.78;;;153.60;2252.80;;;;;;5093544;28;20154;-81
2021/12/08 09:42:17;;;;;;;47.67;35.45;;;153.60;2252.80;;;;;;5093765;28;20363;-78
2021/12/08 09:44:57;;;;;;;47.83;32.28;;;153.60;2252.80;;;;;;5093585;28;20415;-79
2021/12/08 09:47:29;;;;;;;202.13;46.63;;;153.70;2252.80;;;;;;5093862;28;20020;-79
2021/12/08 09:50:00;;;;;;;40.17;27.95;;;153.70;2252.80;;;;;;5094997;28;20517;-80
2021/12/08 09:52:27;;;;;;;53.10;34.45;;;153.60;2252.80;;;;;;5092418;28;20087;-76
2021/12/08 09:55:00;;;;;;;76.97;48.05;;;128.90;2252.80;;;;;;5092792;28;20069;-79
2021/12/08 09:57:26;;;;;;;88.32;53.28;;;128.90;2252.80;;;;;;5092734;28;20024;-80
2021/12/08 09:59:52;;;;;;;99.22;59.72;;;128.90;2252.80;;;;;;5091126;28;20059;-76
2021/12/08 10:02:28;;;;;;;51.83;32.90;;;153.60;2252.80;;;;;;5092331;28;20020;-77
2021/12/08 10:05:11;;;;;;;60.00;41.35;;;153.80;2252.80;;;;;;5093038;28;20024;-83
2021/12/08 10:07:37;;;;;;;45.20;31.55;;;153.90;2252.80;;;;;;5092310;28;20043;-79
2021/12/08 10:10:05;;;;;;;37.78;26.67;;;154.20;2252.80;;;;;;5093962;28;20504;-82
2021/12/08 10:12:34;;;;;;;36.83;27.30;;;154.20;2252.80;;;;;;5093217;28;20058;-77
2021/12/08 10:14:59;;;;;;;41.08;30.02;;;154.20;2252.80;;;;;;5092072;28;20052;-80
2021/12/08 10:17:25;;;;;;;42.42;29.08;;;154.40;2252.80;;;;;;5092426;28;20514;-80
2021/12/08 10:20:18;;;;;;;37.22;24.00;;;154.50;2252.80;;;;;;5092035;28;20020;-80
2021/12/08 10:22:47;;;;;;;32.95;23.30;;;154.30;2252.80;;;;;;5091409;28;20020;-86
2021/12/08 10:25:19;;;;;;;36.17;27.10;;;154.40;2252.80;;;;;;5093636;28;20463;-86
2021/12/08 10:28:04;;;;;;;37.08;25.65;;;154.40;2252.80;;;;;;5093680;28;20031;-89
2021/12/08 10:30:31;;;;;;;32.75;24.15;;;179.20;2252.80;;;;;;5093149;28;20031;-83
2021/12/08 10:32:59;;;;;;;37.38;25.45;;;179.30;2252.80;;;;;;5094339;28;20077;-83
2021/12/08 10:35:49;;;;;;;47.25;34.00;;;179.30;2252.80;;;;;;5092941;28;20074;-83
2021/12/08 10:38:19;;;;;;;53.85;36.42;;;179.40;2252.80;;;;;;5094277;28;20143;-79
2021/12/08 10:41:03;;;;;;;42.30;30.50;;;179.40;2252.80;;;;;;5092701;28;20027;-82
2021/12/08 10:43:29;;;;;;;41.35;29.67;;;179.40;2252.80;;;;;;5092933;28;20024;-80
2021/12/08 10:46:13;;;;;;;47.25;33.55;;;179.50;2252.80;;;;;;5094149;28;20056;-81
2021/12/08 10:48:44;;;;;;;46.03;34.92;;;179.70;2252.80;;;;;;5092882;28;20569;-83
2021/12/08 10:54:35;;;;;;;36.85;28.15;;;179.70;2252.80;;;;;;5093955;28;20072;-79
2021/12/08 10:57:24;;;;;;;54.15;40.72;;;179.80;2252.80;;;;;;5070832;28;20467;-79
2021/12/08 11:00:31;;;;;;;58.10;39.67;;;179.70;2252.80;;;;;;5092717;28;20047;-81
2021/12/08 11:03:03;;;;;;;46.17;31.65;;;179.60;2252.80;;;;;;5011368;28;20060;-81
2021/12/08 11:05:38;;;;;;;52.17;33.93;;;179.60;2252.80;;;;;;5080162;28;20036;-81
2021/12/08 11:08:13;;;;;;;58.97;36.97;;;179.60;2252.80;;;;;;5092699;28;20253;-80
2021/12/08 11:10:49;;;;;;;56.90;37.78;;;179.80;2252.80;;;;;;5092693;28;20194;-78
2021/12/08 11:13:19;;;;;;;56.22;35.75;;;179.90;2252.80;;;;;;5096846;28;20016;-77
2021/12/08 11:15:46;;;;;;;43.72;29.88;;;179.90;2252.80;;;;;;5096467;28;20020;-80
2021/12/08 11:18:19;;;;;;;31.55;23.88;;;179.80;2252.80;;;;;;5096495;28;20455;-79
2021/12/08 11:20:47;;;;;;;35.80;24.58;;;180.00;2252.80;;;;;;5098010;28;20508;-80
2021/12/08 11:23:17;;;;;;;40.65;28.33;;;180.10;2252.80;;;;;;5096473;28;20028;-80
2021/12/08 11:25:46;;;;;;;41.47;29.27;;;204.80;2252.80;;;;;;5096578;28;20028;-80
2021/12/08 11:28:29;;;;;;;40.83;28.50;;;180.00;2252.80;;;;;;5096517;28;20020;-80
2021/12/08 11:31:06;;;;;;;39.17;26.77;;;179.90;2252.80;;;;;;5096268;28;20476;-82
2021/12/08 11:33:33;;;;;;;45.92;32.22;;;179.70;2252.80;;;;;;5096321;28;20027;-80
2021/12/08 11:36:07;;;;;;;38.15;26.70;;;179.60;2252.80;;;;;;5097325;28;20024;-78
2021/12/08 11:38:33;;;;;;;41.28;29.35;;;179.60;2252.80;;;;;;5095743;28;20043;-79
2021/12/08 11:40:59;;;;;;;39.22;27.42;;;179.80;2252.80;;;;;;5095943;28;20020;-80
2021/12/08 11:43:30;;;;;;;46.35;29.08;;;204.90;2252.80;;;;;;5100059;28;20021;-80
2021/12/08 11:46:17;;;;;;;38.78;28.77;;;205.30;2252.80;;;;;;5108127;28;20020;-77
2021/12/08 11:48:57;;;;;;;62.28;45.40;;;205.60;2252.80;;;;;;5096409;28;20375;-81
2021/12/08 11:51:23;;;;;;;66.60;41.97;;;230.40;2252.80;;;;;;5095661;28;20016;-81
2021/12/08 11:53:49;;;;;;;35.17;25.15;;;230.50;2252.80;;;;;;5095829;28;20057;-80
2021/12/08 11:56:33;;;;;;;28.63;22.33;;;230.70;2252.80;;;;;;5095849;28;20074;-80
2021/12/08 11:59:00;;;;;;;31.50;23.70;;;230.70;2252.80;;;;;;5095158;28;20039;-80
2021/12/08 12:01:27;;;;;;;32.70;23.00;;;230.70;2252.80;;;;;;5095791;28;20359;-81
2021/12/08 12:03:53;;;;;;;53.17;25.63;;;230.60;2252.80;;;;;;5095610;28;20026;-80
2021/12/08 12:06:18;;;;;;;36.95;26.75;;;230.70;2252.80;;;;;;5095364;28;20103;-82
2021/12/08 12:08:47;;;;;;;33.17;24.85;;;231.00;2252.80;;;;;;5095696;28;20024;-82
2021/12/08 12:11:12;;;;;;;52.47;39.10;;;230.90;2252.80;;;;;;5095687;28;20097;-82
2021/12/08 12:13:38;;;;;;;42.00;30.10;;;231.00;2252.80;;;;;;5095176;28;20444;-83
2021/12/08 12:16:04;;;;;;;37.35;26.40;;;231.00;2252.80;;;;;;5095629;28;20073;-82
2021/12/08 12:18:32;;;;;;;49.55;39.08;;;231.10;2252.80;;;;;;5095173;28;20073;-82
2021/12/08 12:21:10;;;;;;;43.97;32.60;;;231.10;2252.80;;;;;;5096678;28;20332;-79
2021/12/08 12:23:42;;;;;;;38.65;30.05;;;230.90;2252.80;;;;;;5094224;28;20031;-80
2021/12/08 12:26:31;;;;;;;41.05;29.98;;;231.00;2252.80;;;;;;5096486;28;20590;-81
2021/12/08 12:29:21;;;;;;;49.17;35.17;;;230.70;2252.80;;;;;;5095405;28;20035;-79
2021/12/08 12:32:03;;;;;;;48.67;33.83;;;230.80;2252.80;;;;;;5095348;28;20048;-81
2021/12/08 12:34:33;;;;;;;39.70;31.80;;;230.80;2252.80;;;;;;5095144;28;20023;-81
2021/12/08 12:37:15;;;;;;;46.20;32.28;;;230.60;2252.80;;;;;;5094859;28;20131;-80
2021/12/08 12:39:52;;;;;;;56.13;39.00;;;230.40;2252.80;;;;;;5094700;28;20063;-79
2021/12/08 12:42:19;;;;;;;46.08;35.80;;;230.40;2252.80;;;;;;5096084;28;20020;-79
2021/12/08 12:44:57;;;;;;;52.05;39.03;;;205.40;2252.80;;;;;;5094979;28;20020;-79
2021/12/08 12:47:26;;;;;;;36.97;29.83;;;205.60;2252.80;;;;;;5095835;28;20028;-81
2021/12/08 12:50:09;;;;;;;45.70;34.80;;;205.50;2252.80;;;;;;5094829;28;20026;-81
2021/12/08 12:52:48;;;;;;;51.97;37.72;;;205.50;2252.80;;;;;;5095907;28;20035;-80
2021/12/08 12:55:16;;;;;;;64.63;45.85;;;205.60;2252.80;;;;;;5094507;28;20429;-80
2021/12/08 12:58:04;;;;;;;58.78;44.35;;;230.40;2252.80;;;;;;5094680;28;20024;-82
2021/12/08 13:00:37;;;;;;;41.95;31.48;;;205.60;2252.80;;;;;;5095519;28;20101;-79
2021/12/08 13:03:04;;;;;;;42.35;31.90;;;205.70;2252.80;;;;;;5095954;28;20024;-81
2021/12/08 13:05:47;;;;;;;55.85;38.60;;;230.50;2252.80;;;;;;5096107;28;20103;-80
2021/12/08 13:08:27;;;;;;;44.85;31.77;;;230.60;2252.80;;;;;;5095473;28;20055;-80
2021/12/08 13:10:55;;;;;;;55.20;38.60;;;230.80;2252.80;;;;;;5094598;28;20032;-80
2021/12/08 13:13:22;;;;;;;51.95;36.20;;;230.90;2252.80;;;;;;5094335;28;20024;-82
2021/12/08 13:15:49;;;;;;;57.00;40.80;;;230.90;2252.80;;;;;;5095331;28;20051;-85